sensor_id;sensor_type;location;lat;lon;timestamp;P1;durP1;ratioP1;P2;durP2;ratioP2
20908;SDS011;10614;53.198;6.570;2023-05-10T00:01:11;14.15;;;12.00;;
20908;SDS011;10614;53.198;6.570;2023-05-10T00:03:14;13.25;;;11.85;;
20908;SDS011;10614;53.198;6.570;2023-05-10T00:05:18;14.45;;;12.82;;
20908;SDS011;10614;53.198;6.570;2023-05-10T00:07:35;16.20;;;12.48;;
20908;SDS011;10614;53.198;6.570;2023-05-10T03:15:09;16.92;;;13.30;;
20908;SDS011;10614;53.198;6.570;2023-05-10T03:17:22;17.92;;;14.02;;
20908;SDS011;10614;53.198;6.570;2023-05-10T03:19:30;17.63;;;13.65;;
20908;SDS011;10614;53.198;6.570;2023-05-10T03:21:40;16.67;;;13.27;;
20908;SDS011;10614;53.198;6.570;2023-05-10T03:23:46;18.58;;;14.63;;
20908;SDS011;10614;53.198;6.570;2023-05-10T03:25:54;19.33;;;13.85;;
20908;SDS011;10614;53.198;6.570;2023-05-10T03:27:57;19.15;;;14.00;;
20908;SDS011;10614;53.198;6.570;2023-05-10T03:30:01;19.98;;;15.95;;
20908;SDS011;10614;53.198;6.570;2023-05-10T03:32:09;20.58;;;14.93;;
20908;SDS011;10614;53.198;6.570;2023-05-10T03:34:11;20.42;;;15.35;;
20908;SDS011;10614;53.198;6.570;2023-05-10T03:36:15;18.98;;;14.93;;
20908;SDS011;10614;53.198;6.570;2023-05-10T03:38:18;19.02;;;15.05;;
20908;SDS011;10614;53.198;6.570;2023-05-10T03:40:21;21.60;;;15.73;;
20908;SDS011;10614;53.198;6.570;2023-05-10T03:42:28;24.15;;;17.50;;
20908;SDS011;10614;53.198;6.570;2023-05-10T03:44:33;25.47;;;17.70;;
20908;SDS011;10614;53.198;6.570;2023-05-10T03:46:37;24.58;;;17.15;;
20908;SDS011;10614;53.198;6.570;2023-05-10T03:48:40;24.60;;;17.48;;
20908;SDS011;10614;53.198;6.570;2023-05-10T03:50:42;24.83;;;17.48;;
20908;SDS011;10614;53.198;6.570;2023-05-10T03:52:45;23.75;;;16.45;;
20908;SDS011;10614;53.198;6.570;2023-05-10T03:54:50;26.27;;;19.15;;
20908;SDS011;10614;53.198;6.570;2023-05-10T03:58:56;22.30;;;16.70;;
20908;SDS011;10614;53.198;6.570;2023-05-10T04:00:59;28.02;;;17.80;;
20908;SDS011;10614;53.198;6.570;2023-05-10T04:03:02;28.92;;;18.15;;
20908;SDS011;10614;53.198;6.570;2023-05-10T04:05:05;33.72;;;20.00;;
20908;SDS011;10614;53.198;6.570;2023-05-10T04:07:10;29.02;;;18.52;;
20908;SDS011;10614;53.198;6.570;2023-05-10T04:09:12;25.80;;;18.05;;
20908;SDS011;10614;53.198;6.570;2023-05-10T04:11:14;26.42;;;18.05;;
20908;SDS011;10614;53.198;6.570;2023-05-10T04:13:22;26.23;;;16.95;;
20908;SDS011;10614;53.198;6.570;2023-05-10T04:15:26;29.85;;;19.00;;
20908;SDS011;10614;53.198;6.570;2023-05-10T04:17:30;27.48;;;18.00;;
20908;SDS011;10614;53.198;6.570;2023-05-10T04:19:33;31.83;;;19.42;;
20908;SDS011;10614;53.198;6.570;2023-05-10T04:21:36;32.85;;;20.10;;
20908;SDS011;10614;53.198;6.570;2023-05-10T04:23:39;30.70;;;18.17;;
20908;SDS011;10614;53.198;6.570;2023-05-10T04:25:42;27.63;;;17.95;;
20908;SDS011;10614;53.198;6.570;2023-05-10T04:27:44;27.95;;;16.73;;
20908;SDS011;10614;53.198;6.570;2023-05-10T04:29:46;26.75;;;16.08;;
20908;SDS011;10614;53.198;6.570;2023-05-10T04:31:52;22.08;;;14.10;;
20908;SDS011;10614;53.198;6.570;2023-05-10T04:33:57;18.83;;;12.85;;
20908;SDS011;10614;53.198;6.570;2023-05-10T04:35:59;17.23;;;12.18;;
20908;SDS011;10614;53.198;6.570;2023-05-10T04:38:02;13.27;;;9.60;;
20908;SDS011;10614;53.198;6.570;2023-05-10T04:40:05;12.38;;;9.25;;
20908;SDS011;10614;53.198;6.570;2023-05-10T04:42:09;11.13;;;7.45;;
20908;SDS011;10614;53.198;6.570;2023-05-10T04:44:11;9.68;;;7.40;;
20908;SDS011;10614;53.198;6.570;2023-05-10T04:46:14;8.80;;;6.45;;
20908;SDS011;10614;53.198;6.570;2023-05-10T04:48:18;10.88;;;6.90;;
20908;SDS011;10614;53.198;6.570;2023-05-10T04:50:20;7.10;;;5.65;;
20908;SDS011;10614;53.198;6.570;2023-05-10T04:52:23;8.43;;;6.35;;
20908;SDS011;10614;53.198;6.570;2023-05-10T04:54:26;8.45;;;6.03;;
20908;SDS011;10614;53.198;6.570;2023-05-10T04:56:28;8.60;;;6.40;;
20908;SDS011;10614;53.198;6.570;2023-05-10T04:58:31;7.28;;;6.03;;
20908;SDS011;10614;53.198;6.570;2023-05-10T05:00:33;9.18;;;6.95;;
20908;SDS011;10614;53.198;6.570;2023-05-10T05:02:36;10.07;;;6.38;;
20908;SDS011;10614;53.198;6.570;2023-05-10T05:04:40;8.35;;;6.32;;
20908;SDS011;10614;53.198;6.570;2023-05-10T05:06:42;8.70;;;6.00;;
20908;SDS011;10614;53.198;6.570;2023-05-10T05:08:46;8.05;;;5.90;;
20908;SDS011;10614;53.198;6.570;2023-05-10T05:10:52;8.30;;;6.00;;
20908;SDS011;10614;53.198;6.570;2023-05-10T05:12:55;9.98;;;6.60;;
20908;SDS011;10614;53.198;6.570;2023-05-10T05:15:00;8.93;;;7.10;;
20908;SDS011;10614;53.198;6.570;2023-05-10T05:17:05;9.35;;;6.65;;
20908;SDS011;10614;53.198;6.570;2023-05-10T05:19:09;9.65;;;7.18;;
20908;SDS011;10614;53.198;6.570;2023-05-10T05:21:16;9.98;;;6.80;;
20908;SDS011;10614;53.198;6.570;2023-05-10T05:23:20;8.00;;;5.55;;
20908;SDS011;10614;53.198;6.570;2023-05-10T05:25:25;8.75;;;6.95;;
20908;SDS011;10614;53.198;6.570;2023-05-10T05:27:27;9.27;;;6.60;;
20908;SDS011;10614;53.198;6.570;2023-05-10T05:29:38;9.77;;;6.90;;
20908;SDS011;10614;53.198;6.570;2023-05-10T05:31:47;9.23;;;6.82;;
20908;SDS011;10614;53.198;6.570;2023-05-10T05:33:50;9.60;;;6.72;;
20908;SDS011;10614;53.198;6.570;2023-05-10T05:36:00;9.68;;;7.38;;
20908;SDS011;10614;53.198;6.570;2023-05-10T05:38:05;10.70;;;7.60;;
20908;SDS011;10614;53.198;6.570;2023-05-10T05:40:22;9.52;;;6.97;;
20908;SDS011;10614;53.198;6.570;2023-05-10T05:42:42;9.73;;;6.68;;
20908;SDS011;10614;53.198;6.570;2023-05-10T05:44:45;10.90;;;6.65;;
20908;SDS011;10614;53.198;6.570;2023-05-10T05:47:02;9.77;;;6.97;;
20908;SDS011;10614;53.198;6.570;2023-05-10T05:49:14;9.90;;;6.38;;
20908;SDS011;10614;53.198;6.570;2023-05-10T05:51:31;9.65;;;6.85;;
20908;SDS011;10614;53.198;6.570;2023-05-10T05:53:43;9.35;;;7.20;;
20908;SDS011;10614;53.198;6.570;2023-05-10T05:55:55;9.73;;;6.93;;
20908;SDS011;10614;53.198;6.570;2023-05-10T05:58:01;8.73;;;6.50;;
20908;SDS011;10614;53.198;6.570;2023-05-10T06:00:21;11.68;;;7.40;;
20908;SDS011;10614;53.198;6.570;2023-05-10T06:02:38;9.18;;;6.95;;
20908;SDS011;10614;53.198;6.570;2023-05-10T06:04:55;9.40;;;6.80;;
20908;SDS011;10614;53.198;6.570;2023-05-10T06:15:26;6.95;;;4.70;;
20908;SDS011;10614;53.198;6.570;2023-05-10T06:17:43;7.00;;;4.40;;
20908;SDS011;10614;53.198;6.570;2023-05-10T06:19:47;5.63;;;3.90;;
20908;SDS011;10614;53.198;6.570;2023-05-10T06:22:06;6.00;;;3.80;;
20908;SDS011;10614;53.198;6.570;2023-05-10T06:24:30;4.65;;;3.15;;
20908;SDS011;10614;53.198;6.570;2023-05-10T06:26:38;4.82;;;3.13;;
20908;SDS011;10614;53.198;6.570;2023-05-10T06:31:16;4.40;;;2.83;;
20908;SDS011;10614;53.198;6.570;2023-05-10T06:35:25;6.05;;;2.92;;
20908;SDS011;10614;53.198;6.570;2023-05-10T06:37:30;6.30;;;4.50;;
20908;SDS011;10614;53.198;6.570;2023-05-10T06:39:39;5.82;;;4.70;;
20908;SDS011;10614;53.198;6.570;2023-05-10T06:41:47;8.20;;;6.35;;
20908;SDS011;10614;53.198;6.570;2023-05-10T06:43:52;11.15;;;8.15;;
20908;SDS011;10614;53.198;6.570;2023-05-10T06:46:06;12.27;;;9.05;;
20908;SDS011;10614;53.198;6.570;2023-05-10T06:48:14;11.98;;;9.38;;
20908;SDS011;10614;53.198;6.570;2023-05-10T06:50:16;13.18;;;10.85;;
20908;SDS011;10614;53.198;6.570;2023-05-10T06:52:20;14.38;;;11.00;;
20908;SDS011;10614;53.198;6.570;2023-05-10T06:54:24;13.55;;;10.77;;
20908;SDS011;10614;53.198;6.570;2023-05-10T06:56:40;15.10;;;10.80;;
20908;SDS011;10614;53.198;6.570;2023-05-10T06:58:43;13.10;;;9.65;;
20908;SDS011;10614;53.198;6.570;2023-05-10T07:00:47;12.02;;;7.70;;
20908;SDS011;10614;53.198;6.570;2023-05-10T07:45:21;5.90;;;4.38;;
20908;SDS011;10614;53.198;6.570;2023-05-10T07:47:24;5.90;;;4.33;;
20908;SDS011;10614;53.198;6.570;2023-05-10T07:49:26;5.22;;;4.10;;
20908;SDS011;10614;53.198;6.570;2023-05-10T07:51:28;4.85;;;3.83;;
20908;SDS011;10614;53.198;6.570;2023-05-10T13:44:53;14.70;;;9.10;;
20908;SDS011;10614;53.198;6.570;2023-05-10T13:47:04;13.07;;;8.55;;
20908;SDS011;10614;53.198;6.570;2023-05-10T13:49:08;13.20;;;9.25;;
20908;SDS011;10614;53.198;6.570;2023-05-10T13:51:14;12.52;;;9.23;;
20908;SDS011;10614;53.198;6.570;2023-05-10T13:53:16;12.02;;;8.48;;
20908;SDS011;10614;53.198;6.570;2023-05-10T13:55:18;14.27;;;10.05;;
20908;SDS011;10614;53.198;6.570;2023-05-10T13:57:23;15.93;;;9.65;;
20908;SDS011;10614;53.198;6.570;2023-05-10T13:59:30;13.48;;;9.77;;
20908;SDS011;10614;53.198;6.570;2023-05-10T14:08:33;15.45;;;9.43;;
20908;SDS011;10614;53.198;6.570;2023-05-10T14:10:43;14.70;;;9.80;;
20908;SDS011;10614;53.198;6.570;2023-05-10T14:12:47;12.85;;;8.93;;
20908;SDS011;10614;53.198;6.570;2023-05-10T14:14:54;15.20;;;9.07;;
20908;SDS011;10614;53.198;6.570;2023-05-10T14:16:59;13.82;;;8.90;;
20908;SDS011;10614;53.198;6.570;2023-05-10T14:19:02;15.63;;;9.52;;
20908;SDS011;10614;53.198;6.570;2023-05-10T14:21:06;15.38;;;9.60;;
20908;SDS011;10614;53.198;6.570;2023-05-10T14:23:09;13.77;;;9.35;;
20908;SDS011;10614;53.198;6.570;2023-05-10T14:25:15;14.95;;;10.05;;
20908;SDS011;10614;53.198;6.570;2023-05-10T14:27:19;15.32;;;9.98;;
20908;SDS011;10614;53.198;6.570;2023-05-10T14:29:29;14.52;;;8.70;;
20908;SDS011;10614;53.198;6.570;2023-05-10T14:31:36;15.15;;;10.05;;
20908;SDS011;10614;53.198;6.570;2023-05-10T14:33:43;15.25;;;9.98;;
20908;SDS011;10614;53.198;6.570;2023-05-10T14:35:50;16.67;;;9.73;;
20908;SDS011;10614;53.198;6.570;2023-05-10T14:37:54;13.85;;;9.35;;
20908;SDS011;10614;53.198;6.570;2023-05-10T14:39:59;15.38;;;10.55;;
20908;SDS011;10614;53.198;6.570;2023-05-10T14:44:10;13.82;;;9.88;;
20908;SDS011;10614;53.198;6.570;2023-05-10T14:46:13;15.20;;;9.80;;
20908;SDS011;10614;53.198;6.570;2023-05-10T14:48:16;14.20;;;10.05;;
20908;SDS011;10614;53.198;6.570;2023-05-10T14:50:18;14.35;;;9.80;;
20908;SDS011;10614;53.198;6.570;2023-05-10T14:52:21;12.55;;;8.73;;
20908;SDS011;10614;53.198;6.570;2023-05-10T14:56:28;12.80;;;9.40;;
20908;SDS011;10614;53.198;6.570;2023-05-10T14:58:32;12.80;;;8.90;;
20908;SDS011;10614;53.198;6.570;2023-05-10T15:00:47;12.90;;;9.48;;
20908;SDS011;10614;53.198;6.570;2023-05-10T15:03:05;15.63;;;10.70;;
20908;SDS011;10614;53.198;6.570;2023-05-10T15:05:14;13.70;;;9.90;;
20908;SDS011;10614;53.198;6.570;2023-05-10T15:07:19;12.00;;;9.25;;
20908;SDS011;10614;53.198;6.570;2023-05-10T15:09:39;13.75;;;9.82;;
20908;SDS011;10614;53.198;6.570;2023-05-10T15:11:58;11.95;;;8.85;;
20908;SDS011;10614;53.198;6.570;2023-05-10T15:19:50;14.93;;;10.10;;
20908;SDS011;10614;53.198;6.570;2023-05-10T15:22:09;15.65;;;11.05;;
20908;SDS011;10614;53.198;6.570;2023-05-10T15:24:19;16.30;;;11.02;;
20908;SDS011;10614;53.198;6.570;2023-05-10T15:26:22;17.45;;;10.23;;
20908;SDS011;10614;53.198;6.570;2023-05-10T15:28:33;14.80;;;10.20;;
20908;SDS011;10614;53.198;6.570;2023-05-10T15:30:37;16.10;;;11.27;;
20908;SDS011;10614;53.198;6.570;2023-05-10T15:32:44;16.00;;;10.63;;
20908;SDS011;10614;53.198;6.570;2023-05-10T15:34:51;14.43;;;10.63;;
20908;SDS011;10614;53.198;6.570;2023-05-10T15:36:54;18.15;;;11.10;;
20908;SDS011;10614;53.198;6.570;2023-05-10T15:38:57;15.77;;;11.02;;
20908;SDS011;10614;53.198;6.570;2023-05-10T15:41:05;15.50;;;11.43;;
20908;SDS011;10614;53.198;6.570;2023-05-10T15:43:11;15.88;;;12.18;;
20908;SDS011;10614;53.198;6.570;2023-05-10T15:45:15;14.23;;;10.00;;
20908;SDS011;10614;53.198;6.570;2023-05-10T15:47:20;15.80;;;11.55;;
20908;SDS011;10614;53.198;6.570;2023-05-10T15:49:34;13.75;;;10.13;;
20908;SDS011;10614;53.198;6.570;2023-05-10T15:51:47;14.10;;;10.50;;
20908;SDS011;10614;53.198;6.570;2023-05-10T15:53:52;16.25;;;11.95;;
20908;SDS011;10614;53.198;6.570;2023-05-10T15:56:01;14.20;;;10.90;;
20908;SDS011;10614;53.198;6.570;2023-05-10T15:58:05;18.17;;;12.37;;
20908;SDS011;10614;53.198;6.570;2023-05-10T16:00:08;15.27;;;11.73;;
20908;SDS011;10614;53.198;6.570;2023-05-10T16:02:14;12.70;;;10.30;;
20908;SDS011;10614;53.198;6.570;2023-05-10T16:04:18;15.95;;;11.40;;
20908;SDS011;10614;53.198;6.570;2023-05-10T16:06:24;14.23;;;10.90;;
20908;SDS011;10614;53.198;6.570;2023-05-10T16:08:31;18.52;;;11.75;;
20908;SDS011;10614;53.198;6.570;2023-05-10T16:21:34;11.27;;;8.45;;
20908;SDS011;10614;53.198;6.570;2023-05-10T16:26:46;11.02;;;8.35;;
20908;SDS011;10614;53.198;6.570;2023-05-10T16:28:51;10.20;;;7.88;;
20908;SDS011;10614;53.198;6.570;2023-05-10T16:30:56;13.20;;;7.95;;
20908;SDS011;10614;53.198;6.570;2023-05-10T16:33:05;9.13;;;7.43;;
20908;SDS011;10614;53.198;6.570;2023-05-10T16:35:08;10.07;;;7.95;;
20908;SDS011;10614;53.198;6.570;2023-05-10T16:37:15;11.73;;;7.97;;
20908;SDS011;10614;53.198;6.570;2023-05-10T16:39:17;10.30;;;7.88;;
20908;SDS011;10614;53.198;6.570;2023-05-10T16:41:20;9.23;;;7.57;;
20908;SDS011;10614;53.198;6.570;2023-05-10T16:43:24;9.43;;;7.75;;
20908;SDS011;10614;53.198;6.570;2023-05-10T16:45:32;10.48;;;7.55;;
20908;SDS011;10614;53.198;6.570;2023-05-10T16:47:35;10.73;;;6.93;;
20908;SDS011;10614;53.198;6.570;2023-05-10T16:49:43;9.48;;;6.70;;
20908;SDS011;10614;53.198;6.570;2023-05-10T16:51:49;9.68;;;7.07;;
20908;SDS011;10614;53.198;6.570;2023-05-10T16:53:51;10.35;;;6.93;;
20908;SDS011;10614;53.198;6.570;2023-05-10T16:55:57;8.50;;;6.15;;
20908;SDS011;10614;53.198;6.570;2023-05-10T16:57:59;8.63;;;6.75;;
20908;SDS011;10614;53.198;6.570;2023-05-10T17:00:13;8.75;;;6.00;;
20908;SDS011;10614;53.198;6.570;2023-05-10T17:02:30;8.32;;;6.20;;
20908;SDS011;10614;53.198;6.570;2023-05-10T17:04:46;7.68;;;5.40;;
20908;SDS011;10614;53.198;6.570;2023-05-10T17:07:04;8.95;;;5.93;;
20908;SDS011;10614;53.198;6.570;2023-05-10T17:45:02;8.15;;;6.75;;
20908;SDS011;10614;53.198;6.570;2023-05-10T17:47:10;8.80;;;6.95;;
20908;SDS011;10614;53.198;6.570;2023-05-10T17:49:16;10.45;;;7.35;;
20908;SDS011;10614;53.198;6.570;2023-05-10T17:51:18;8.52;;;6.53;;
20908;SDS011;10614;53.198;6.570;2023-05-10T17:53:22;8.85;;;6.30;;
20908;SDS011;10614;53.198;6.570;2023-05-10T17:55:26;8.35;;;6.68;;
20908;SDS011;10614;53.198;6.570;2023-05-10T17:57:29;8.20;;;6.47;;
20908;SDS011;10614;53.198;6.570;2023-05-10T17:59:32;7.65;;;6.80;;
20908;SDS011;10614;53.198;6.570;2023-05-10T18:01:38;7.68;;;5.80;;
20908;SDS011;10614;53.198;6.570;2023-05-10T18:03:41;13.93;;;7.00;;
20908;SDS011;10614;53.198;6.570;2023-05-10T18:05:44;7.30;;;5.57;;
20908;SDS011;10614;53.198;6.570;2023-05-10T18:07:48;7.30;;;5.90;;
20908;SDS011;10614;53.198;6.570;2023-05-10T18:09:50;7.43;;;5.72;;
20908;SDS011;10614;53.198;6.570;2023-05-10T18:11:52;8.10;;;6.50;;
20908;SDS011;10614;53.198;6.570;2023-05-10T18:13:56;9.52;;;6.60;;
20908;SDS011;10614;53.198;6.570;2023-05-10T18:15:59;9.32;;;6.93;;
20908;SDS011;10614;53.198;6.570;2023-05-10T18:18:06;8.48;;;6.93;;
20908;SDS011;10614;53.198;6.570;2023-05-10T18:20:13;9.20;;;7.13;;
20908;SDS011;10614;53.198;6.570;2023-05-10T18:22:15;9.13;;;6.82;;
20908;SDS011;10614;53.198;6.570;2023-05-10T18:24:18;9.50;;;7.32;;
20908;SDS011;10614;53.198;6.570;2023-05-10T18:26:23;8.23;;;6.75;;
20908;SDS011;10614;53.198;6.570;2023-05-10T18:28:29;8.63;;;7.07;;
20908;SDS011;10614;53.198;6.570;2023-05-10T18:30:36;9.63;;;7.00;;
20908;SDS011;10614;53.198;6.570;2023-05-10T18:32:40;10.63;;;7.93;;
20908;SDS011;10614;53.198;6.570;2023-05-10T18:34:48;8.93;;;6.72;;
20908;SDS011;10614;53.198;6.570;2023-05-10T18:36:53;12.50;;;8.45;;
20908;SDS011;10614;53.198;6.570;2023-05-10T18:38:56;9.80;;;7.95;;
20908;SDS011;10614;53.198;6.570;2023-05-10T18:40:58;11.25;;;8.45;;
20908;SDS011;10614;53.198;6.570;2023-05-10T18:43:01;10.30;;;7.97;;
20908;SDS011;10614;53.198;6.570;2023-05-10T18:45:04;10.00;;;7.60;;
20908;SDS011;10614;53.198;6.570;2023-05-10T18:47:09;10.35;;;8.20;;
20908;SDS011;10614;53.198;6.570;2023-05-10T18:49:11;11.48;;;8.50;;
20908;SDS011;10614;53.198;6.570;2023-05-10T18:51:16;10.30;;;8.38;;
20908;SDS011;10614;53.198;6.570;2023-05-10T18:53:19;10.40;;;7.95;;
20908;SDS011;10614;53.198;6.570;2023-05-10T18:55:22;10.68;;;8.55;;
20908;SDS011;10614;53.198;6.570;2023-05-10T18:57:27;11.00;;;7.75;;
20908;SDS011;10614;53.198;6.570;2023-05-10T18:59:29;11.02;;;8.35;;
20908;SDS011;10614;53.198;6.570;2023-05-10T19:01:32;10.63;;;7.68;;
20908;SDS011;10614;53.198;6.570;2023-05-10T19:03:34;10.80;;;7.63;;
20908;SDS011;10614;53.198;6.570;2023-05-10T19:05:36;9.98;;;7.60;;
20908;SDS011;10614;53.198;6.570;2023-05-10T19:07:39;11.57;;;8.63;;
20908;SDS011;10614;53.198;6.570;2023-05-10T19:09:43;12.52;;;9.00;;
20908;SDS011;10614;53.198;6.570;2023-05-10T19:11:44;11.15;;;8.02;;
20908;SDS011;10614;53.198;6.570;2023-05-10T19:13:46;11.45;;;7.90;;
20908;SDS011;10614;53.198;6.570;2023-05-10T19:15:58;12.57;;;8.65;;
20908;SDS011;10614;53.198;6.570;2023-05-10T19:18:04;10.88;;;7.95;;
20908;SDS011;10614;53.198;6.570;2023-05-10T19:20:08;13.18;;;9.13;;
20908;SDS011;10614;53.198;6.570;2023-05-10T19:22:10;12.93;;;9.40;;
20908;SDS011;10614;53.198;6.570;2023-05-10T19:24:14;12.63;;;9.20;;
20908;SDS011;10614;53.198;6.570;2023-05-10T19:26:17;13.25;;;8.70;;
20908;SDS011;10614;53.198;6.570;2023-05-10T19:28:19;11.05;;;7.93;;
20908;SDS011;10614;53.198;6.570;2023-05-10T19:30:21;11.57;;;8.55;;
20908;SDS011;10614;53.198;6.570;2023-05-10T19:32:23;11.57;;;9.23;;
20908;SDS011;10614;53.198;6.570;2023-05-10T19:34:24;12.55;;;9.45;;
20908;SDS011;10614;53.198;6.570;2023-05-10T19:36:27;12.75;;;9.90;;
20908;SDS011;10614;53.198;6.570;2023-05-10T19:38:28;12.07;;;9.55;;
20908;SDS011;10614;53.198;6.570;2023-05-10T19:40:32;13.18;;;9.38;;
20908;SDS011;10614;53.198;6.570;2023-05-10T19:42:35;11.80;;;9.25;;
20908;SDS011;10614;53.198;6.570;2023-05-10T19:44:37;12.27;;;9.18;;
20908;SDS011;10614;53.198;6.570;2023-05-10T19:46:39;12.55;;;8.88;;
20908;SDS011;10614;53.198;6.570;2023-05-10T19:48:41;12.43;;;8.77;;
20908;SDS011;10614;53.198;6.570;2023-05-10T19:50:43;11.30;;;7.95;;
20908;SDS011;10614;53.198;6.570;2023-05-10T19:52:47;10.35;;;7.82;;
20908;SDS011;10614;53.198;6.570;2023-05-10T19:54:49;11.60;;;8.60;;
20908;SDS011;10614;53.198;6.570;2023-05-10T19:56:52;11.18;;;8.07;;
20908;SDS011;10614;53.198;6.570;2023-05-10T19:58:54;10.73;;;8.25;;
20908;SDS011;10614;53.198;6.570;2023-05-10T20:00:57;10.90;;;8.07;;
20908;SDS011;10614;53.198;6.570;2023-05-10T20:02:59;9.48;;;7.15;;
20908;SDS011;10614;53.198;6.570;2023-05-10T20:05:00;10.43;;;7.85;;
20908;SDS011;10614;53.198;6.570;2023-05-10T20:07:05;10.73;;;7.35;;
20908;SDS011;10614;53.198;6.570;2023-05-10T20:09:07;11.35;;;7.95;;
20908;SDS011;10614;53.198;6.570;2023-05-10T20:11:09;10.60;;;7.97;;
20908;SDS011;10614;53.198;6.570;2023-05-10T20:13:13;11.63;;;8.60;;
20908;SDS011;10614;53.198;6.570;2023-05-10T20:15:16;14.52;;;10.20;;
20908;SDS011;10614;53.198;6.570;2023-05-10T20:17:19;15.13;;;9.43;;
20908;SDS011;10614;53.198;6.570;2023-05-10T20:19:21;16.48;;;10.13;;
20908;SDS011;10614;53.198;6.570;2023-05-10T20:21:23;16.00;;;10.95;;
20908;SDS011;10614;53.198;6.570;2023-05-10T20:23:26;14.55;;;11.13;;
20908;SDS011;10614;53.198;6.570;2023-05-10T20:25:29;15.35;;;10.85;;
20908;SDS011;10614;53.198;6.570;2023-05-10T20:27:32;16.00;;;10.52;;
20908;SDS011;10614;53.198;6.570;2023-05-10T20:29:38;15.27;;;10.77;;
20908;SDS011;10614;53.198;6.570;2023-05-10T20:31:47;17.42;;;10.85;;
20908;SDS011;10614;53.198;6.570;2023-05-10T20:33:54;15.73;;;9.65;;
20908;SDS011;10614;53.198;6.570;2023-05-10T20:35:58;12.90;;;9.27;;
20908;SDS011;10614;53.198;6.570;2023-05-10T20:38:01;15.80;;;10.88;;
20908;SDS011;10614;53.198;6.570;2023-05-10T20:40:04;13.27;;;9.18;;
20908;SDS011;10614;53.198;6.570;2023-05-10T20:42:10;13.02;;;9.65;;
20908;SDS011;10614;53.198;6.570;2023-05-10T20:44:12;15.00;;;10.25;;
20908;SDS011;10614;53.198;6.570;2023-05-10T20:46:23;13.68;;;9.60;;
20908;SDS011;10614;53.198;6.570;2023-05-10T20:48:27;15.35;;;11.18;;
20908;SDS011;10614;53.198;6.570;2023-05-10T20:50:34;16.50;;;10.98;;
20908;SDS011;10614;53.198;6.570;2023-05-10T20:52:38;16.27;;;11.43;;
20908;SDS011;10614;53.198;6.570;2023-05-10T20:54:40;18.65;;;10.95;;
20908;SDS011;10614;53.198;6.570;2023-05-10T20:56:42;15.60;;;11.05;;
20908;SDS011;10614;53.198;6.570;2023-05-10T20:58:44;15.38;;;11.32;;
20908;SDS011;10614;53.198;6.570;2023-05-10T21:00:50;15.75;;;11.00;;
20908;SDS011;10614;53.198;6.570;2023-05-10T21:39:32;13.75;;;8.57;;
20908;SDS011;10614;53.198;6.570;2023-05-10T21:41:34;11.40;;;8.15;;
20908;SDS011;10614;53.198;6.570;2023-05-10T21:43:37;14.10;;;10.82;;
20908;SDS011;10614;53.198;6.570;2023-05-10T21:45:39;13.88;;;9.88;;
20908;SDS011;10614;53.198;6.570;2023-05-10T21:47:42;12.43;;;9.15;;
20908;SDS011;10614;53.198;6.570;2023-05-10T21:49:44;12.30;;;8.93;;
20908;SDS011;10614;53.198;6.570;2023-05-10T21:51:46;11.70;;;8.50;;
20908;SDS011;10614;53.198;6.570;2023-05-10T21:53:49;12.88;;;8.30;;
20908;SDS011;10614;53.198;6.570;2023-05-10T21:55:53;9.70;;;7.03;;
20908;SDS011;10614;53.198;6.570;2023-05-10T21:57:56;10.27;;;7.25;;
20908;SDS011;10614;53.198;6.570;2023-05-10T22:00:01;8.60;;;6.40;;
20908;SDS011;10614;53.198;6.570;2023-05-10T22:02:05;9.77;;;7.03;;
20908;SDS011;10614;53.198;6.570;2023-05-10T22:04:07;9.55;;;6.88;;
20908;SDS011;10614;53.198;6.570;2023-05-10T22:06:13;10.05;;;7.20;;
20908;SDS011;10614;53.198;6.570;2023-05-10T22:08:19;9.80;;;6.35;;
20908;SDS011;10614;53.198;6.570;2023-05-10T22:10:21;8.75;;;6.10;;
20908;SDS011;10614;53.198;6.570;2023-05-10T22:12:27;10.13;;;7.38;;
20908;SDS011;10614;53.198;6.570;2023-05-10T22:14:30;9.63;;;6.60;;
20908;SDS011;10614;53.198;6.570;2023-05-10T22:16:32;9.80;;;7.25;;
20908;SDS011;10614;53.198;6.570;2023-05-10T22:18:34;11.50;;;7.85;;
20908;SDS011;10614;53.198;6.570;2023-05-10T22:20:36;11.43;;;8.50;;
20908;SDS011;10614;53.198;6.570;2023-05-10T22:22:38;13.38;;;9.30;;
20908;SDS011;10614;53.198;6.570;2023-05-10T22:24:40;13.02;;;8.80;;
20908;SDS011;10614;53.198;6.570;2023-05-10T22:26:42;11.75;;;8.15;;
